Weather at CFB Greenwood

Public forecast

Using degrees Celsius for public forecast. Weather courtesy of forecast.io.

Current aviation weather report (METAR) for CFB Greenwood

Retrieved 2020/11/25 08:00 UTC (4 minutes ago):

CYZX 250800Z 00000KT 15SM SKC M07/M10 A3051 RMK SLP334

Aviation forecast (TAF) for CFB Greenwood

Retrieved 2020/11/25 06:33 UTC (2 hours ago):

TAF TAF CYZX 250530Z 2506/2606 VRB03KT P6SM SCT030 FM250900 VRB03KT P6SM FEW030 SCT240 FM251200 VRB03KT P6SM BKN160 BKN240 FM251500 06008KT P6SM BKN120 OVC220 FM251800 19008G18KT P6SM FEW025 OVC080 FM260000 18010KT P6SM FEW020 OVC040 FM260400 19010KT P6SM -SHRA SCT012 OVC020 RMK NXT FCST BY 251200Z